createdAt,value
2023-02-26T00:00:10.551Z,97599.66
2023-02-26T00:02:57.642Z,97607.56
2023-02-26T00:05:24.505Z,97610.47
2023-02-26T00:07:51.556Z,97609.50
2023-02-26T00:10:18.376Z,97623.72
2023-02-26T00:12:45.833Z,97613.38
2023-02-26T00:15:15.032Z,97624.69
2023-02-26T00:17:53.928Z,97628.31
2023-02-26T00:20:21.272Z,97631.00
2023-02-26T00:22:48.592Z,97638.16
2023-02-26T00:25:15.477Z,97649.97
2023-02-26T00:27:44.024Z,97645.47
2023-02-26T00:30:11.407Z,97639.13
2023-02-26T00:32:39.677Z,97655.16
2023-02-26T00:35:08.521Z,97648.13
2023-02-26T00:37:38.759Z,97649.97
2023-02-26T00:40:21.901Z,97651.75
2023-02-26T00:42:49.534Z,97658.09
2023-02-26T00:45:16.797Z,97658.00
2023-02-26T00:48:08.859Z,97658.31
2023-02-26T00:50:36.030Z,97656.50
2023-02-26T00:53:35.666Z,97655.53
2023-02-26T00:56:02.423Z,97658.31
2023-02-26T00:58:29.497Z,97657.44
2023-02-26T01:00:56.250Z,97659.38
2023-02-26T01:03:23.571Z,97654.16
2023-02-26T01:05:50.510Z,97655.88
2023-02-26T01:08:43.935Z,97658.78
2023-02-26T01:11:10.921Z,97664.22
2023-02-26T01:13:38.141Z,97648.06
2023-02-26T01:16:09.862Z,97659.38
2023-02-26T01:18:42.532Z,97651.59
2023-02-26T01:21:10.998Z,97651.47
2023-02-26T01:23:40.405Z,97655.13
2023-02-26T01:26:12.579Z,97658.78
2023-02-26T01:28:39.894Z,97654.16
2023-02-26T01:31:07.348Z,97660.72
2023-02-26T01:33:46.253Z,97669.78
2023-02-26T01:36:17.360Z,97672.13
2023-02-26T01:39:24.037Z,97680.16
2023-02-26T01:42:12.554Z,97693.53
2023-02-26T01:44:58.480Z,97688.16
2023-02-26T01:47:50.371Z,97698.13
2023-02-26T01:50:22.738Z,97702.38
2023-02-26T01:52:49.477Z,97698.25
2023-02-26T01:55:24.021Z,97708.94
2023-02-26T01:57:51.192Z,97711.59
2023-02-26T02:00:18.613Z,97703.47
2023-02-26T02:02:45.500Z,97707.22
2023-02-26T02:05:35.134Z,97717.78
2023-02-26T02:08:01.894Z,97721.44
2023-02-26T02:10:29.029Z,97722.19
2023-02-26T02:13:15.826Z,97729.47
2023-02-26T02:16:07.016Z,97732.16
2023-02-26T02:19:01.869Z,97725.19
2023-02-26T02:21:46.308Z,97731.38
2023-02-26T02:24:40.175Z,97734.06
2023-02-26T02:27:22.589Z,97736.00
2023-02-26T02:30:07.968Z,97734.41
2023-02-26T02:32:50.192Z,97732.06
2023-02-26T02:35:26.390Z,97736.09
2023-02-26T02:38:13.556Z,97740.81
2023-02-26T02:40:42.876Z,97742.75
2023-02-26T02:43:17.786Z,97749.69
2023-02-26T02:45:54.228Z,97744.34
2023-02-26T02:48:31.303Z,97746.16
2023-02-26T02:51:12.690Z,97750.56
2023-02-26T02:53:41.215Z,97752.47
2023-02-26T02:56:14.730Z,97752.72
2023-02-26T02:58:50.167Z,97750.66
2023-02-26T03:01:18.672Z,97758.69
2023-02-26T03:04:19.086Z,97761.47
2023-02-26T03:06:50.200Z,97773.84
2023-02-26T03:09:17.275Z,97767.75
2023-02-26T03:11:44.005Z,97772.88
2023-02-26T03:14:11.177Z,97777.59
2023-02-26T03:16:44.173Z,97786.34
2023-02-26T03:19:18.186Z,97792.91
2023-02-26T03:22:07.137Z,97801.88
2023-02-26T03:24:40.774Z,97808.94
2023-02-26T03:27:16.793Z,97808.94
2023-02-26T03:29:47.211Z,97818.75
2023-02-26T03:32:36.120Z,97818.75
2023-02-26T03:35:08.395Z,97821.88
2023-02-26T03:37:40.999Z,97835.88
2023-02-26T03:40:17.963Z,97835.88
2023-02-26T03:42:47.323Z,97842.63
2023-02-26T03:45:19.383Z,97845.19
2023-02-26T03:47:48.568Z,97839.50
2023-02-26T03:50:18.080Z,97847.41
2023-02-26T03:52:45.984Z,97855.53
2023-02-26T03:55:16.356Z,97847.41
2023-02-26T03:57:43.116Z,97855.31
2023-02-26T04:00:11.015Z,97850.06
2023-02-26T04:02:43.064Z,97863.22
2023-02-26T04:05:18.787Z,97864.31
2023-02-26T04:07:46.053Z,97860.13
2023-02-26T04:10:15.547Z,97867.31
2023-02-26T04:12:42.576Z,97877.25
2023-02-26T04:15:10.164Z,97876.91
2023-02-26T04:17:36.944Z,97880.03
2023-02-26T04:20:08.067Z,97880.03
2023-02-26T04:22:34.787Z,97884.50
2023-02-26T04:25:01.831Z,97886.22
2023-02-26T04:27:28.575Z,97895.28
2023-02-26T04:29:55.661Z,97898.50
2023-02-26T04:32:22.432Z,97906.06
2023-02-26T04:34:49.484Z,97905.53
2023-02-26T04:37:16.210Z,97913.88
2023-02-26T04:39:43.276Z,97913.88
2023-02-26T04:42:10.017Z,97913.03
2023-02-26T04:44:37.176Z,97922.97
2023-02-26T04:47:04.077Z,97922.00
2023-02-26T04:49:31.475Z,97914.88
2023-02-26T04:51:58.454Z,97916.66
2023-02-26T04:54:25.515Z,97921.06
2023-02-26T04:56:52.248Z,97932.59
2023-02-26T04:59:19.290Z,97937.41
2023-02-26T05:01:46.111Z,97945.50
2023-02-26T05:04:13.232Z,97946.06
2023-02-26T05:06:40.059Z,97950.53
2023-02-26T05:09:07.144Z,97953.97
2023-02-26T05:11:33.909Z,97950.75
2023-02-26T05:14:01.058Z,97956.41
2023-02-26T05:16:28.220Z,97962.19
2023-02-26T05:18:55.527Z,97964.09
2023-02-26T05:21:24.597Z,97965.84
2023-02-26T05:23:52.954Z,97976.63
2023-02-26T05:26:19.704Z,97973.31
2023-02-26T05:28:46.780Z,97978.84
2023-02-26T05:31:13.930Z,97988.78
2023-02-26T05:33:41.544Z,97990.28
2023-02-26T05:36:08.434Z,97991.03
2023-02-26T05:38:35.476Z,98001.16
2023-02-26T05:41:02.343Z,98015.41
2023-02-26T05:43:29.470Z,98022.66
2023-02-26T05:45:56.262Z,98020.75
2023-02-26T05:48:23.506Z,98026.19
2023-02-26T05:50:50.378Z,98031.72
2023-02-26T05:53:17.446Z,98035.06
2023-02-26T05:55:44.177Z,98043.16
2023-02-26T05:58:11.252Z,98047.47
2023-02-26T06:00:38.073Z,98052.81
2023-02-26T06:03:05.253Z,98054.81
2023-02-26T06:05:32.065Z,98060.28
2023-02-26T06:07:59.114Z,98061.56
2023-02-26T06:10:25.918Z,98065.09
2023-02-26T06:12:52.996Z,98067.22
2023-02-26T06:15:19.792Z,98066.47
2023-02-26T06:17:46.861Z,98071.72
2023-02-26T06:20:13.698Z,98083.34
2023-02-26T06:22:40.773Z,98082.41
2023-02-26T06:25:07.817Z,98087.09
2023-02-26T06:27:34.972Z,98094.03
2023-02-26T06:30:01.876Z,98103.66
2023-02-26T06:32:30.669Z,98103.56
2023-02-26T06:34:57.662Z,98100.22
2023-02-26T06:37:25.075Z,98102.13
2023-02-26T06:39:51.919Z,98107.28
2023-02-26T06:42:20.167Z,98104.81
2023-02-26T06:44:47.155Z,98116.25
2023-02-26T06:47:14.543Z,98120.19
2023-02-26T06:49:41.319Z,98119.97
2023-02-26T06:52:08.480Z,98122.56
2023-02-26T06:54:35.349Z,98134.94
2023-02-26T06:57:03.308Z,98134.19
2023-02-26T06:59:30.063Z,98139.53
2023-02-26T07:01:57.715Z,98136.75
2023-02-26T07:04:24.496Z,98141.34
2023-02-26T07:06:51.685Z,98150.03
2023-02-26T07:09:20.143Z,98143.63
2023-02-26T07:11:47.405Z,98150.13
2023-02-26T07:14:14.233Z,98157.28
2023-02-26T07:16:41.346Z,98158.03
2023-02-26T07:19:08.172Z,98157.19
2023-02-26T07:21:35.209Z,98158.97
2023-02-26T07:24:01.948Z,98161.38
2023-02-26T07:26:28.978Z,98160.22
2023-02-26T07:28:55.761Z,98160.41
2023-02-26T07:31:23.137Z,98165.38
2023-02-26T07:33:49.969Z,98169.28
2023-02-26T07:36:17.098Z,98180.94
2023-02-26T07:38:43.842Z,98176.53
2023-02-26T07:41:10.978Z,98190.75
2023-02-26T07:43:37.738Z,98189.63
2023-02-26T07:46:05.155Z,98185.91
2023-02-26T07:48:31.980Z,98199.84
2023-02-26T07:50:59.080Z,98198.88
2023-02-26T07:53:26.084Z,98203.25
2023-02-26T07:55:53.133Z,98202.31
2023-02-26T07:58:19.930Z,98210.72
2023-02-26T08:00:47.098Z,98211.47
2023-02-26T08:03:15.416Z,98228.34
2023-02-26T08:05:42.465Z,98230.34
2023-02-26T08:08:09.194Z,98226.66
2023-02-26T08:10:36.260Z,98222.91
2023-02-26T08:13:03.047Z,98220.13
2023-02-26T08:15:30.242Z,98215.69
2023-02-26T08:17:57.129Z,98224.63
2023-02-26T08:20:24.183Z,98220.34
2023-02-26T08:22:51.013Z,98228.16
2023-02-26T08:25:18.252Z,98228.16
2023-02-26T08:27:45.016Z,98231.81
2023-02-26T08:30:12.464Z,98237.06
2023-02-26T08:32:42.583Z,98233.59
2023-02-26T08:35:10.336Z,98236.25
2023-02-26T08:37:37.107Z,98241.78
2023-02-26T08:40:06.503Z,98247.94
2023-02-26T08:42:33.231Z,98248.78
2023-02-26T08:45:00.289Z,98248.78
2023-02-26T08:47:29.064Z,98260.13
2023-02-26T08:49:56.545Z,98258.44
2023-02-26T08:52:23.356Z,98268.13
2023-02-26T08:54:53.953Z,98266.53
2023-02-26T08:57:20.700Z,98267.47
2023-02-26T08:59:47.759Z,98266.06
2023-02-26T09:02:14.679Z,98269.47
2023-02-26T09:04:41.740Z,98272.34
2023-02-26T09:07:08.579Z,98279.56
2023-02-26T09:09:35.651Z,98280.38
2023-02-26T09:12:02.435Z,98283.13
2023-02-26T09:14:29.541Z,98289.50
2023-02-26T09:16:56.392Z,98292.84
2023-02-26T09:19:23.754Z,98284.63
2023-02-26T09:21:50.808Z,98283.03
2023-02-26T09:24:18.046Z,98288.84
2023-02-26T09:26:45.288Z,98284.66
2023-02-26T09:29:13.352Z,98285.31
2023-02-26T09:31:42.419Z,98281.78
2023-02-26T09:34:11.392Z,98292.69
2023-02-26T09:36:38.893Z,98285.78
2023-02-26T09:39:06.240Z,98298.13
2023-02-26T09:41:44.587Z,98292.78
2023-02-26T09:44:21.914Z,98298.31
2023-02-26T09:47:10.580Z,98303.56
2023-02-26T09:49:53.173Z,98309.94
2023-02-26T09:52:30.176Z,98311.47
2023-02-26T09:55:00.486Z,98321.94
2023-02-26T09:57:35.145Z,98319.28
2023-02-26T10:00:23.758Z,98322.41
2023-02-26T10:02:54.811Z,98329.41
2023-02-26T10:05:43.177Z,98328.47
2023-02-26T10:08:17.543Z,98332.25
2023-02-26T10:11:00.350Z,98336.94
2023-02-26T10:13:40.481Z,98348.47
2023-02-26T10:16:17.178Z,98358.22
2023-02-26T10:18:55.934Z,98360.44
2023-02-26T10:21:48.999Z,98362.78
2023-02-26T10:24:29.744Z,98375.97
2023-02-26T10:27:01.563Z,98378.66
2023-02-26T10:29:35.133Z,98379.31
2023-02-26T10:32:23.608Z,98388.13
2023-02-26T10:34:50.675Z,98385.63
2023-02-26T10:37:35.808Z,98390.19
2023-02-26T10:40:24.696Z,98395.53
2023-02-26T10:43:04.222Z,98397.34
2023-02-26T10:45:51.334Z,98402.50
2023-02-26T10:48:46.716Z,98407.19
2023-02-26T10:51:18.784Z,98413.09
2023-02-26T10:54:01.313Z,98413.28
2023-02-26T10:56:31.168Z,98417.50
2023-02-26T10:58:58.538Z,98413.19
2023-02-26T11:01:28.512Z,98420.28
2023-02-26T11:03:59.972Z,98423.13
2023-02-26T11:06:39.889Z,98420.28
2023-02-26T11:09:29.057Z,98429.91
2023-02-26T11:12:17.046Z,98438.09
2023-02-26T11:14:45.089Z,98436.69
2023-02-26T11:17:18.234Z,98444.88
2023-02-26T11:20:12.392Z,98447.53
2023-02-26T11:22:39.382Z,98445.38
2023-02-26T11:25:07.095Z,98449.69
2023-02-26T11:27:38.007Z,98449.84
2023-02-26T11:30:08.148Z,98454.44
2023-02-26T11:32:36.921Z,98453.47
2023-02-26T11:35:06.539Z,98460.72
2023-02-26T11:37:38.633Z,98462.63
2023-02-26T11:40:14.073Z,98463.63
2023-02-26T11:42:44.407Z,98461.59
2023-02-26T11:45:14.536Z,98464.88
2023-02-26T11:47:41.369Z,98469.28
2023-02-26T11:50:23.126Z,98468.50
2023-02-26T11:53:08.383Z,98467.25
2023-02-26T11:55:44.558Z,98468.31
2023-02-26T11:58:22.803Z,98477.19
2023-02-26T12:00:52.348Z,98479.19
2023-02-26T12:03:22.275Z,98483.00
2023-02-26T12:05:53.432Z,98488.75
2023-02-26T12:08:46.756Z,98495.78
2023-02-26T12:11:35.488Z,98499.44
2023-02-26T12:14:20.806Z,98501.22
2023-02-26T12:17:04.229Z,98505.44
2023-02-26T12:19:49.429Z,98508.34
2023-02-26T12:22:38.186Z,98506.88
2023-02-26T12:25:08.141Z,98508.69
2023-02-26T12:27:43.169Z,98515.16
2023-02-26T12:30:34.269Z,98521.66
2023-02-26T12:33:36.974Z,98517.56
2023-02-26T12:36:21.752Z,98515.66
2023-02-26T12:39:16.829Z,98517.25
2023-02-26T12:42:05.162Z,98522.69
2023-02-26T12:44:51.475Z,98537.53
2023-02-26T12:47:30.350Z,98539.34
2023-02-26T12:50:35.002Z,98547.47
2023-02-26T12:53:16.142Z,98545.63
2023-02-26T12:55:55.171Z,98542.88
2023-02-26T12:58:49.959Z,98546.66
2023-02-26T13:01:28.279Z,98544.09
2023-02-26T13:04:00.468Z,98546.50
2023-02-26T13:06:35.504Z,98552.41
2023-02-26T13:09:14.102Z,98551.47
2023-02-26T13:11:54.417Z,98549.75
2023-02-26T13:14:31.436Z,98563.22
2023-02-26T13:17:04.453Z,98557.84
2023-02-26T13:19:48.480Z,98565.69
2023-02-26T13:22:28.998Z,98568.47
2023-02-26T13:25:14.997Z,98586.91
2023-02-26T13:27:42.220Z,98582.81
2023-02-26T13:30:51.339Z,98602.19
2023-02-26T13:33:21.034Z,98599.44
2023-02-26T13:35:47.983Z,98601.03
2023-02-26T13:38:17.273Z,98606.97
2023-02-26T13:41:02.092Z,98607.78
2023-02-26T13:43:34.956Z,98602.59
2023-02-26T13:46:11.027Z,98612.25
2023-02-26T13:49:05.198Z,98615.78
2023-02-26T13:51:34.825Z,98609.56
2023-02-26T13:54:23.243Z,98610.72
2023-02-26T13:57:25.968Z,98610.63
2023-02-26T14:00:02.168Z,98611.75
2023-02-26T14:02:36.339Z,98623.50
2023-02-26T14:05:09.582Z,98625.28
2023-02-26T14:07:49.651Z,98629.78
2023-02-26T14:10:24.820Z,98625.28
2023-02-26T14:13:20.157Z,98632.63
2023-02-26T14:15:56.274Z,98616.50
2023-02-26T14:18:32.133Z,98623.75
2023-02-26T14:21:35.760Z,98619.09
2023-02-26T14:24:12.084Z,98619.19
2023-02-26T14:26:39.179Z,98619.25
2023-02-26T14:29:05.919Z,98621.94
2023-02-26T14:32:06.172Z,98627.28
2023-02-26T14:34:36.675Z,98639.72
2023-02-26T14:37:07.167Z,98636.28
2023-02-26T14:39:47.621Z,98632.22
2023-02-26T14:42:32.427Z,98645.06
2023-02-26T14:45:08.887Z,98652.81
2023-02-26T14:47:37.102Z,98656.09
2023-02-26T14:50:06.309Z,98666.13
2023-02-26T14:52:54.689Z,98674.91
2023-02-26T14:55:21.474Z,98679.31
2023-02-26T14:57:54.632Z,98688.66
2023-02-26T15:00:30.356Z,98691.13
2023-02-26T15:03:03.509Z,98687.75
2023-02-26T15:05:39.459Z,98695.03
2023-02-26T15:08:09.541Z,98695.19
2023-02-26T15:10:54.181Z,98699.78
2023-02-26T15:13:28.465Z,98701.75
2023-02-26T15:16:04.427Z,98713.22
2023-02-26T15:18:50.493Z,98719.53
2023-02-26T15:21:35.709Z,98722.19
2023-02-26T15:24:03.726Z,98725.97
2023-02-26T15:26:54.778Z,98719.88
2023-02-26T15:29:25.568Z,98732.47
2023-02-26T15:32:03.508Z,98731.66
2023-02-26T15:34:30.908Z,98726.31
2023-02-26T15:37:01.344Z,98727.28
2023-02-26T15:39:28.568Z,98727.38
2023-02-26T15:41:55.554Z,98730.88
2023-02-26T15:44:30.766Z,98728.31
2023-02-26T15:47:02.209Z,98732.72
2023-02-26T15:49:33.605Z,98728.31
2023-02-26T15:52:00.747Z,98742.53
2023-02-26T15:54:33.482Z,98739.75
2023-02-26T15:57:01.458Z,98742.53
2023-02-26T15:59:29.614Z,98748.66
2023-02-26T16:01:56.428Z,98748.81
2023-02-26T16:04:23.668Z,98750.56
2023-02-26T16:06:54.150Z,98754.59
2023-02-26T16:09:34.663Z,98748.31
2023-02-26T16:12:16.303Z,98756.22
2023-02-26T16:14:50.189Z,98752.34
2023-02-26T16:17:25.056Z,98752.88
2023-02-26T16:19:52.121Z,98765.09
2023-02-26T16:22:37.024Z,98768.81
2023-02-26T16:25:08.470Z,98782.44
2023-02-26T16:27:35.224Z,98783.38
2023-02-26T16:30:04.091Z,98791.22
2023-02-26T16:32:38.704Z,98790.44
2023-02-26T16:35:16.341Z,98790.59
2023-02-26T16:37:50.030Z,98803.88
2023-02-26T16:40:25.863Z,98798.84
2023-02-26T16:42:55.072Z,98804.19
2023-02-26T16:45:37.546Z,98805.25
2023-02-26T16:48:16.644Z,98817.56
2023-02-26T16:50:43.872Z,98809.63
2023-02-26T16:53:16.393Z,98814.28
2023-02-26T16:55:47.402Z,98819.63
2023-02-26T16:58:14.736Z,98821.44
2023-02-26T17:00:44.551Z,98818.69
2023-02-26T17:03:19.858Z,98833.66
2023-02-26T17:06:06.908Z,98825.84
2023-02-26T17:08:37.238Z,98831.25
2023-02-26T17:11:07.750Z,98837.38
2023-02-26T17:13:35.729Z,98848.84
2023-02-26T17:16:04.742Z,98848.00
2023-02-26T17:18:31.866Z,98849.63
2023-02-26T17:20:59.754Z,98855.38
2023-02-26T17:23:29.806Z,98865.91
2023-02-26T17:25:57.076Z,98859.91
2023-02-26T17:28:28.884Z,98869.66
2023-02-26T17:30:56.180Z,98883.97
2023-02-26T17:33:23.342Z,98883.81
2023-02-26T17:35:50.513Z,98895.59
2023-02-26T17:38:17.373Z,98893.72
2023-02-26T17:40:45.463Z,98894.81
2023-02-26T17:43:12.280Z,98896.63
2023-02-26T17:45:40.276Z,98906.59
2023-02-26T17:48:07.736Z,98901.25
2023-02-26T17:50:54.574Z,98894.91
2023-02-26T17:53:22.458Z,98896.78
2023-02-26T17:55:50.383Z,98895.91
2023-02-26T17:58:29.750Z,98894.22
2023-02-26T18:00:57.278Z,98894.97
2023-02-26T18:03:24.123Z,98893.94
2023-02-26T18:05:51.398Z,98894.09
2023-02-26T18:08:29.483Z,98895.75
2023-02-26T18:10:56.906Z,98901.97
2023-02-26T18:13:23.744Z,98903.78
2023-02-26T18:15:51.167Z,98912.25
2023-02-26T18:18:18.074Z,98925.84
2023-02-26T18:20:46.170Z,98934.25
2023-02-26T18:23:13.878Z,98937.88
2023-02-26T18:25:41.230Z,98937.25
2023-02-26T18:28:14.391Z,98938.31
2023-02-26T18:30:44.144Z,98942.03
2023-02-26T18:33:12.145Z,98949.81
2023-02-26T18:35:45.700Z,98938.50
2023-02-26T18:38:18.397Z,98942.56
2023-02-26T18:40:45.978Z,98950.09
2023-02-26T18:43:12.925Z,98946.41
2023-02-26T18:45:41.622Z,98950.97
2023-02-26T18:48:12.293Z,98953.72
2023-02-26T18:50:39.567Z,98957.09
2023-02-26T18:53:06.444Z,98960.78
2023-02-26T18:55:33.722Z,98970.63
2023-02-26T18:58:00.838Z,98968.03
2023-02-26T19:00:28.814Z,98973.34
2023-02-26T19:02:55.801Z,98981.44
2023-02-26T19:05:24.744Z,98985.13
2023-02-26T19:07:51.627Z,98982.28
2023-02-26T19:10:18.996Z,98975.22
2023-02-26T19:12:45.971Z,98981.38
2023-02-26T19:15:13.458Z,98976.88
2023-02-26T19:17:41.709Z,98974.28
2023-02-26T19:20:10.110Z,98979.00
2023-02-26T19:22:36.986Z,98985.25
2023-02-26T19:25:04.751Z,98982.50
2023-02-26T19:27:31.611Z,98978.69
2023-02-26T19:29:58.763Z,98973.72
2023-02-26T19:32:26.624Z,98981.44
2023-02-26T19:34:53.826Z,98982.50
2023-02-26T19:37:20.680Z,98992.47
2023-02-26T19:39:47.971Z,98989.53
2023-02-26T19:42:15.067Z,98993.06
2023-02-26T19:44:42.272Z,98996.19
2023-02-26T19:47:09.749Z,98997.75
2023-02-26T19:49:37.064Z,99004.19
2023-02-26T19:52:04.146Z,99007.78
2023-02-26T19:54:31.516Z,99000.44
2023-02-26T19:56:58.492Z,99019.31
2023-02-26T19:59:25.737Z,99030.06
2023-02-26T20:01:52.685Z,99019.31
2023-02-26T20:04:19.837Z,99020.44
2023-02-26T20:06:46.868Z,99023.94
2023-02-26T20:09:14.675Z,99029.88
2023-02-26T20:11:42.050Z,99030.75
2023-02-26T20:14:09.357Z,99023.66
2023-02-26T20:16:36.234Z,99025.41
2023-02-26T20:19:03.366Z,99032.53
2023-02-26T20:21:30.235Z,99034.50
2023-02-26T20:23:57.740Z,99040.47
2023-02-26T20:26:24.645Z,99037.94
2023-02-26T20:28:51.800Z,99039.75
2023-02-26T20:31:18.752Z,99039.03
2023-02-26T20:33:46.227Z,99047.75
2023-02-26T20:36:14.933Z,99042.06
2023-02-26T20:38:42.983Z,99045.09
2023-02-26T20:41:10.115Z,99043.66
2023-02-26T20:43:37.390Z,99051.69
2023-02-26T20:46:04.914Z,99046.34
2023-02-26T20:48:32.324Z,99053.63
2023-02-26T20:51:00.519Z,99052.59
2023-02-26T20:53:27.978Z,99055.19
2023-02-26T20:55:55.035Z,99051.59
2023-02-26T20:58:22.213Z,99059.69
2023-02-26T21:00:49.093Z,99058.72
2023-02-26T21:03:16.264Z,99061.25
2023-02-26T21:05:43.197Z,99063.84
2023-02-26T21:08:10.632Z,99052.53
2023-02-26T21:10:37.404Z,99057.72
2023-02-26T21:13:04.410Z,99049.88
2023-02-26T21:15:31.267Z,99054.28
2023-02-26T21:17:58.397Z,99064.00
2023-02-26T21:20:25.214Z,99066.72
2023-02-26T21:22:52.480Z,99053.47
2023-02-26T21:25:19.373Z,99050.72
2023-02-26T21:27:46.498Z,99071.94
2023-02-26T21:30:13.726Z,99063.84
2023-02-26T21:32:41.013Z,99072.72
2023-02-26T21:35:08.873Z,99070.88
2023-02-26T21:37:36.066Z,99076.22
2023-02-26T21:40:06.386Z,99076.28
2023-02-26T21:42:33.564Z,99075.31
2023-02-26T21:45:00.358Z,99085.78
2023-02-26T21:47:27.441Z,99089.03
2023-02-26T21:49:54.234Z,99084.63
2023-02-26T21:52:21.396Z,99088.97
2023-02-26T21:54:48.226Z,99092.38
2023-02-26T21:57:15.370Z,99088.09
2023-02-26T21:59:42.170Z,99089.75
2023-02-26T22:02:10.847Z,99101.44
2023-02-26T22:04:38.041Z,99102.31
2023-02-26T22:07:05.095Z,99101.81
2023-02-26T22:09:31.877Z,99102.09
2023-02-26T22:11:59.018Z,99101.69
2023-02-26T22:14:25.962Z,99102.88
2023-02-26T22:16:53.089Z,99113.56
2023-02-26T22:19:19.932Z,99105.63
2023-02-26T22:21:47.011Z,99115.44
2023-02-26T22:24:13.870Z,99116.94
2023-02-26T22:26:42.704Z,99121.56
2023-02-26T22:29:09.751Z,99122.72
2023-02-26T22:31:36.979Z,99120.84
2023-02-26T22:34:03.767Z,99128.97
2023-02-26T22:36:31.447Z,99123.44
2023-02-26T22:38:58.356Z,99128.00
2023-02-26T22:41:25.471Z,99129.78
2023-02-26T22:43:53.947Z,99133.25
2023-02-26T22:46:23.229Z,99133.25
2023-02-26T22:48:50.060Z,99133.84
2023-02-26T22:51:17.095Z,99134.13
2023-02-26T22:53:43.868Z,99134.97
2023-02-26T22:56:11.058Z,99143.13
2023-02-26T22:58:38.606Z,99146.66
2023-02-26T23:01:06.555Z,99143.22
2023-02-26T23:03:33.484Z,99150.41
2023-02-26T23:06:00.685Z,99154.81
2023-02-26T23:08:27.581Z,99160.34
2023-02-26T23:10:58.447Z,99149.47
2023-02-26T23:13:25.388Z,99152.88
2023-02-26T23:15:52.654Z,99159.34
2023-02-26T23:18:19.495Z,99158.28
2023-02-26T23:20:47.331Z,99165.63
2023-02-26T23:23:14.315Z,99164.47
2023-02-26T23:25:42.558Z,99171.63
2023-02-26T23:28:09.312Z,99173.69
2023-02-26T23:30:36.393Z,99174.34
2023-02-26T23:33:04.155Z,99177.97
2023-02-26T23:35:31.247Z,99174.47
2023-02-26T23:37:57.993Z,99185.09
2023-02-26T23:40:25.262Z,99176.22
2023-02-26T23:42:52.512Z,99181.09
2023-02-26T23:45:19.604Z,99176.50
2023-02-26T23:47:46.371Z,99176.56
2023-02-26T23:50:13.421Z,99180.91
2023-02-26T23:52:40.177Z,99182.78
2023-02-26T23:55:07.884Z,99179.22
2023-02-26T23:57:34.626Z,99177.53
